sensor_id;sensor_type;location;lat;lon;timestamp;temperature;humidity
18131;DHT22;9191;54.324;10.126;2023-02-28T00:01:21;5.60;99.90
18131;DHT22;9191;54.324;10.126;2023-02-28T00:03:47;5.60;99.90
18131;DHT22;9191;54.324;10.126;2023-02-28T00:06:14;5.70;99.90
18131;DHT22;9191;54.324;10.126;2023-02-28T00:08:41;5.80;99.90
18131;DHT22;9191;54.324;10.126;2023-02-28T00:11:09;5.80;99.90
18131;DHT22;9191;54.324;10.126;2023-02-28T00:13:37;5.80;99.90
18131;DHT22;9191;54.324;10.126;2023-02-28T00:16:05;5.80;99.90
18131;DHT22;9191;54.324;10.126;2023-02-28T00:18:32;5.80;99.90
18131;DHT22;9191;54.324;10.126;2023-02-28T00:20:59;5.80;99.90
18131;DHT22;9191;54.324;10.126;2023-02-28T00:23:26;5.70;99.90
18131;DHT22;9191;54.324;10.126;2023-02-28T00:25:53;5.70;99.90
18131;DHT22;9191;54.324;10.126;2023-02-28T00:28:21;5.70;99.90
18131;DHT22;9191;54.324;10.126;2023-02-28T00:30:48;5.60;99.90
18131;DHT22;9191;54.324;10.126;2023-02-28T00:33:15;5.70;99.90
18131;DHT22;9191;54.324;10.126;2023-02-28T00:35:42;5.60;99.90
18131;DHT22;9191;54.324;10.126;2023-02-28T00:38:08;5.50;99.90
18131;DHT22;9191;54.324;10.126;2023-02-28T00:40:35;5.30;99.90
18131;DHT22;9191;54.324;10.126;2023-02-28T00:43:02;5.40;99.90
18131;DHT22;9191;54.324;10.126;2023-02-28T00:45:30;5.50;99.90
18131;DHT22;9191;54.324;10.126;2023-02-28T00:47:57;5.60;99.90
18131;DHT22;9191;54.324;10.126;2023-02-28T00:50:24;5.60;99.90
18131;DHT22;9191;54.324;10.126;2023-02-28T00:52:50;5.60;99.90
18131;DHT22;9191;54.324;10.126;2023-02-28T00:55:17;5.60;99.90
18131;DHT22;9191;54.324;10.126;2023-02-28T00:57:44;5.50;99.90
18131;DHT22;9191;54.324;10.126;2023-02-28T01:00:11;5.50;99.90
18131;DHT22;9191;54.324;10.126;2023-02-28T01:02:39;5.50;99.90
18131;DHT22;9191;54.324;10.126;2023-02-28T01:05:06;5.60;99.90
18131;DHT22;9191;54.324;10.126;2023-02-28T01:07:33;5.60;99.90
18131;DHT22;9191;54.324;10.126;2023-02-28T01:10:00;5.60;99.90
18131;DHT22;9191;54.324;10.126;2023-02-28T01:12:26;5.60;99.90
18131;DHT22;9191;54.324;10.126;2023-02-28T01:14:53;5.60;99.90
18131;DHT22;9191;54.324;10.126;2023-02-28T01:17:20;5.50;99.90
18131;DHT22;9191;54.324;10.126;2023-02-28T01:19:48;5.50;99.90
18131;DHT22;9191;54.324;10.126;2023-02-28T01:22:14;5.50;99.90
18131;DHT22;9191;54.324;10.126;2023-02-28T01:24:41;5.50;99.90
18131;DHT22;9191;54.324;10.126;2023-02-28T01:27:08;5.50;99.90
18131;DHT22;9191;54.324;10.126;2023-02-28T01:29:34;5.50;99.90
18131;DHT22;9191;54.324;10.126;2023-02-28T01:32:01;5.50;99.90
18131;DHT22;9191;54.324;10.126;2023-02-28T01:34:28;5.50;99.90
18131;DHT22;9191;54.324;10.126;2023-02-28T01:36:56;5.40;99.90
18131;DHT22;9191;54.324;10.126;2023-02-28T01:39:24;5.40;99.90
18131;DHT22;9191;54.324;10.126;2023-02-28T01:41:50;5.40;99.90
18131;DHT22;9191;54.324;10.126;2023-02-28T01:47:02;5.50;99.90
18131;DHT22;9191;54.324;10.126;2023-02-28T01:49:29;5.50;99.90
18131;DHT22;9191;54.324;10.126;2023-02-28T01:51:57;5.50;99.90
18131;DHT22;9191;54.324;10.126;2023-02-28T01:54:24;5.50;99.90
18131;DHT22;9191;54.324;10.126;2023-02-28T01:56:53;5.50;99.90
18131;DHT22;9191;54.324;10.126;2023-02-28T01:59:21;5.30;99.90
18131;DHT22;9191;54.324;10.126;2023-02-28T02:01:48;5.20;99.90
18131;DHT22;9191;54.324;10.126;2023-02-28T02:04:15;5.20;99.90
18131;DHT22;9191;54.324;10.126;2023-02-28T02:06:42;5.00;99.90
18131;DHT22;9191;54.324;10.126;2023-02-28T02:09:11;4.90;99.90
18131;DHT22;9191;54.324;10.126;2023-02-28T02:11:38;4.90;99.90
18131;DHT22;9191;54.324;10.126;2023-02-28T02:14:31;4.80;99.90
18131;DHT22;9191;54.324;10.126;2023-02-28T02:17:04;4.90;99.90
18131;DHT22;9191;54.324;10.126;2023-02-28T02:22:21;5.00;99.90
18131;DHT22;9191;54.324;10.126;2023-02-28T02:25:02;5.00;99.90
18131;DHT22;9191;54.324;10.126;2023-02-28T02:27:34;5.10;99.90
18131;DHT22;9191;54.324;10.126;2023-02-28T02:30:33;5.10;99.90
18131;DHT22;9191;54.324;10.126;2023-02-28T02:33:16;5.10;99.90
18131;DHT22;9191;54.324;10.126;2023-02-28T02:35:49;5.00;99.90
18131;DHT22;9191;54.324;10.126;2023-02-28T02:38:20;5.00;99.90
18131;DHT22;9191;54.324;10.126;2023-02-28T02:40:57;4.90;99.90
18131;DHT22;9191;54.324;10.126;2023-02-28T02:43:25;4.90;99.90
18131;DHT22;9191;54.324;10.126;2023-02-28T02:45:54;4.90;99.90
18131;DHT22;9191;54.324;10.126;2023-02-28T02:48:25;4.80;99.90
18131;DHT22;9191;54.324;10.126;2023-02-28T02:50:57;4.80;99.90
18131;DHT22;9191;54.324;10.126;2023-02-28T02:53:26;4.80;99.90
18131;DHT22;9191;54.324;10.126;2023-02-28T02:55:53;4.80;99.90
18131;DHT22;9191;54.324;10.126;2023-02-28T02:58:22;4.80;99.90
18131;DHT22;9191;54.324;10.126;2023-02-28T03:00:51;4.80;99.90
18131;DHT22;9191;54.324;10.126;2023-02-28T03:03:19;4.80;99.90
18131;DHT22;9191;54.324;10.126;2023-02-28T03:05:56;4.80;99.90
18131;DHT22;9191;54.324;10.126;2023-02-28T03:08:23;4.70;99.90
18131;DHT22;9191;54.324;10.126;2023-02-28T03:10:51;4.70;99.90
18131;DHT22;9191;54.324;10.126;2023-02-28T03:13:25;4.70;99.90
18131;DHT22;9191;54.324;10.126;2023-02-28T03:15:58;4.60;99.90
18131;DHT22;9191;54.324;10.126;2023-02-28T03:18:29;4.60;99.90
18131;DHT22;9191;54.324;10.126;2023-02-28T03:21:00;4.60;99.90
18131;DHT22;9191;54.324;10.126;2023-02-28T03:23:35;4.50;99.90
18131;DHT22;9191;54.324;10.126;2023-02-28T03:26:06;4.40;99.90
18131;DHT22;9191;54.324;10.126;2023-02-28T03:28:36;4.40;99.90
18131;DHT22;9191;54.324;10.126;2023-02-28T03:31:07;4.40;99.90
18131;DHT22;9191;54.324;10.126;2023-02-28T03:33:38;4.40;99.90
18131;DHT22;9191;54.324;10.126;2023-02-28T03:36:08;4.50;99.90
18131;DHT22;9191;54.324;10.126;2023-02-28T03:38:38;4.40;99.90
18131;DHT22;9191;54.324;10.126;2023-02-28T03:41:06;4.30;99.90
18131;DHT22;9191;54.324;10.126;2023-02-28T03:43:35;4.40;99.90
18131;DHT22;9191;54.324;10.126;2023-02-28T03:46:06;4.40;99.90
18131;DHT22;9191;54.324;10.126;2023-02-28T03:48:35;4.50;99.90
18131;DHT22;9191;54.324;10.126;2023-02-28T03:51:03;4.40;99.90
18131;DHT22;9191;54.324;10.126;2023-02-28T03:53:35;4.40;99.90
18131;DHT22;9191;54.324;10.126;2023-02-28T03:56:05;4.40;99.90
18131;DHT22;9191;54.324;10.126;2023-02-28T03:58:35;4.40;99.90
18131;DHT22;9191;54.324;10.126;2023-02-28T04:01:03;4.40;99.90
18131;DHT22;9191;54.324;10.126;2023-02-28T04:03:33;4.20;99.90
18131;DHT22;9191;54.324;10.126;2023-02-28T04:06:00;4.10;99.90
18131;DHT22;9191;54.324;10.126;2023-02-28T04:08:28;4.20;99.90
18131;DHT22;9191;54.324;10.126;2023-02-28T04:10:57;4.10;99.90
18131;DHT22;9191;54.324;10.126;2023-02-28T04:13:25;4.00;99.90
18131;DHT22;9191;54.324;10.126;2023-02-28T04:15:52;3.80;99.90
18131;DHT22;9191;54.324;10.126;2023-02-28T04:18:18;3.80;99.90
18131;DHT22;9191;54.324;10.126;2023-02-28T04:20:45;3.70;99.90
18131;DHT22;9191;54.324;10.126;2023-02-28T04:23:12;3.70;99.90
18131;DHT22;9191;54.324;10.126;2023-02-28T04:25:38;3.80;99.90
18131;DHT22;9191;54.324;10.126;2023-02-28T04:28:07;3.60;99.90
18131;DHT22;9191;54.324;10.126;2023-02-28T04:30:35;3.50;99.90
18131;DHT22;9191;54.324;10.126;2023-02-28T04:33:01;3.50;99.90
18131;DHT22;9191;54.324;10.126;2023-02-28T04:35:28;3.50;99.90
18131;DHT22;9191;54.324;10.126;2023-02-28T04:37:54;3.40;99.90
18131;DHT22;9191;54.324;10.126;2023-02-28T04:40:21;3.40;99.90
18131;DHT22;9191;54.324;10.126;2023-02-28T04:42:48;3.30;99.90
18131;DHT22;9191;54.324;10.126;2023-02-28T04:45:16;3.30;99.90
18131;DHT22;9191;54.324;10.126;2023-02-28T04:47:42;3.30;99.90
18131;DHT22;9191;54.324;10.126;2023-02-28T04:50:09;3.30;99.90
18131;DHT22;9191;54.324;10.126;2023-02-28T04:52:36;3.30;99.90
18131;DHT22;9191;54.324;10.126;2023-02-28T04:55:03;3.30;99.90
18131;DHT22;9191;54.324;10.126;2023-02-28T04:57:30;3.20;99.90
18131;DHT22;9191;54.324;10.126;2023-02-28T04:59:57;3.20;99.90
18131;DHT22;9191;54.324;10.126;2023-02-28T05:02:25;3.40;99.90
18131;DHT22;9191;54.324;10.126;2023-02-28T05:04:52;3.30;99.90
18131;DHT22;9191;54.324;10.126;2023-02-28T05:07:18;3.20;99.90
18131;DHT22;9191;54.324;10.126;2023-02-28T05:09:45;3.00;99.90
18131;DHT22;9191;54.324;10.126;2023-02-28T05:12:12;3.00;99.90
18131;DHT22;9191;54.324;10.126;2023-02-28T05:14:38;3.00;99.90
18131;DHT22;9191;54.324;10.126;2023-02-28T05:17:05;2.90;99.90
18131;DHT22;9191;54.324;10.126;2023-02-28T05:19:33;2.80;99.90
18131;DHT22;9191;54.324;10.126;2023-02-28T05:22:00;2.90;99.90
18131;DHT22;9191;54.324;10.126;2023-02-28T05:24:27;2.90;99.90
18131;DHT22;9191;54.324;10.126;2023-02-28T05:26:54;2.90;99.90
18131;DHT22;9191;54.324;10.126;2023-02-28T05:29:21;2.80;99.90
18131;DHT22;9191;54.324;10.126;2023-02-28T05:31:48;2.70;99.90
18131;DHT22;9191;54.324;10.126;2023-02-28T05:34:14;2.70;99.90
18131;DHT22;9191;54.324;10.126;2023-02-28T05:36:42;2.70;99.90
18131;DHT22;9191;54.324;10.126;2023-02-28T05:39:09;2.70;99.90
18131;DHT22;9191;54.324;10.126;2023-02-28T05:41:38;2.80;99.90
18131;DHT22;9191;54.324;10.126;2023-02-28T05:44:05;2.70;99.90
18131;DHT22;9191;54.324;10.126;2023-02-28T05:46:32;2.80;99.90
18131;DHT22;9191;54.324;10.126;2023-02-28T05:48:58;2.90;99.90
18131;DHT22;9191;54.324;10.126;2023-02-28T05:51:26;2.90;99.90
18131;DHT22;9191;54.324;10.126;2023-02-28T05:53:54;2.90;99.90
18131;DHT22;9191;54.324;10.126;2023-02-28T05:56:22;2.90;99.90
18131;DHT22;9191;54.324;10.126;2023-02-28T05:58:48;2.90;99.90
18131;DHT22;9191;54.324;10.126;2023-02-28T06:04:06;2.90;99.90
18131;DHT22;9191;54.324;10.126;2023-02-28T06:06:33;3.00;99.90
18131;DHT22;9191;54.324;10.126;2023-02-28T06:09:02;2.90;99.90
18131;DHT22;9191;54.324;10.126;2023-02-28T06:11:29;3.00;99.90
18131;DHT22;9191;54.324;10.126;2023-02-28T06:13:56;2.90;99.90
18131;DHT22;9191;54.324;10.126;2023-02-28T06:16:24;2.90;99.90
18131;DHT22;9191;54.324;10.126;2023-02-28T06:18:51;2.80;99.90
18131;DHT22;9191;54.324;10.126;2023-02-28T06:21:21;2.80;99.90
18131;DHT22;9191;54.324;10.126;2023-02-28T06:23:47;2.90;99.90
18131;DHT22;9191;54.324;10.126;2023-02-28T06:26:15;2.90;99.90
18131;DHT22;9191;54.324;10.126;2023-02-28T06:28:42;2.80;99.90
18131;DHT22;9191;54.324;10.126;2023-02-28T06:31:09;2.70;99.90
18131;DHT22;9191;54.324;10.126;2023-02-28T06:33:36;2.70;99.90
18131;DHT22;9191;54.324;10.126;2023-02-28T06:36:03;2.70;99.90
18131;DHT22;9191;54.324;10.126;2023-02-28T06:38:31;2.60;99.90
18131;DHT22;9191;54.324;10.126;2023-02-28T06:40:58;2.70;99.90
18131;DHT22;9191;54.324;10.126;2023-02-28T06:43:27;2.70;99.90
18131;DHT22;9191;54.324;10.126;2023-02-28T06:45:54;2.80;99.90
18131;DHT22;9191;54.324;10.126;2023-02-28T06:48:21;2.90;99.90
18131;DHT22;9191;54.324;10.126;2023-02-28T06:50:47;3.00;99.90
18131;DHT22;9191;54.324;10.126;2023-02-28T06:53:14;3.00;99.90
18131;DHT22;9191;54.324;10.126;2023-02-28T06:55:41;3.00;99.90
18131;DHT22;9191;54.324;10.126;2023-02-28T06:58:07;3.00;99.90
18131;DHT22;9191;54.324;10.126;2023-02-28T07:00:41;3.00;99.90
18131;DHT22;9191;54.324;10.126;2023-02-28T07:03:09;3.00;99.90
18131;DHT22;9191;54.324;10.126;2023-02-28T07:05:35;3.10;99.90
18131;DHT22;9191;54.324;10.126;2023-02-28T07:08:02;3.10;99.90
18131;DHT22;9191;54.324;10.126;2023-02-28T07:10:29;3.20;99.90
18131;DHT22;9191;54.324;10.126;2023-02-28T07:12:56;3.50;99.90
18131;DHT22;9191;54.324;10.126;2023-02-28T07:15:22;3.90;99.90
18131;DHT22;9191;54.324;10.126;2023-02-28T07:17:50;4.70;99.90
18131;DHT22;9191;54.324;10.126;2023-02-28T07:20:17;6.00;99.90
18131;DHT22;9191;54.324;10.126;2023-02-28T07:22:44;7.20;99.90
18131;DHT22;9191;54.324;10.126;2023-02-28T07:25:10;8.10;99.90
18131;DHT22;9191;54.324;10.126;2023-02-28T07:27:37;8.90;99.90
18131;DHT22;9191;54.324;10.126;2023-02-28T07:30:05;10.00;99.90
18131;DHT22;9191;54.324;10.126;2023-02-28T07:32:32;10.20;99.90
18131;DHT22;9191;54.324;10.126;2023-02-28T07:35:00;10.60;99.90
18131;DHT22;9191;54.324;10.126;2023-02-28T07:37:30;10.70;99.90
18131;DHT22;9191;54.324;10.126;2023-02-28T07:40:02;10.70;99.90
18131;DHT22;9191;54.324;10.126;2023-02-28T07:42:31;11.30;99.90
18131;DHT22;9191;54.324;10.126;2023-02-28T07:44:58;11.70;99.90
18131;DHT22;9191;54.324;10.126;2023-02-28T07:47:25;12.00;99.90
18131;DHT22;9191;54.324;10.126;2023-02-28T07:49:52;11.60;99.90
18131;DHT22;9191;54.324;10.126;2023-02-28T07:52:20;11.80;99.90
18131;DHT22;9191;54.324;10.126;2023-02-28T07:54:49;12.40;99.90
18131;DHT22;9191;54.324;10.126;2023-02-28T07:57:16;13.70;99.90
18131;DHT22;9191;54.324;10.126;2023-02-28T07:59:43;15.20;99.90
18131;DHT22;9191;54.324;10.126;2023-02-28T08:02:12;16.40;99.90
18131;DHT22;9191;54.324;10.126;2023-02-28T08:04:40;17.10;99.90
18131;DHT22;9191;54.324;10.126;2023-02-28T08:07:07;17.40;99.90
18131;DHT22;9191;54.324;10.126;2023-02-28T08:09:36;17.50;99.90
18131;DHT22;9191;54.324;10.126;2023-02-28T08:12:03;17.20;99.90
18131;DHT22;9191;54.324;10.126;2023-02-28T08:14:30;16.60;99.90
18131;DHT22;9191;54.324;10.126;2023-02-28T08:16:57;15.40;99.90
18131;DHT22;9191;54.324;10.126;2023-02-28T08:19:23;14.90;99.90
18131;DHT22;9191;54.324;10.126;2023-02-28T08:21:50;14.70;99.90
18131;DHT22;9191;54.324;10.126;2023-02-28T08:24:17;15.00;99.90
18131;DHT22;9191;54.324;10.126;2023-02-28T08:26:46;14.70;99.90
18131;DHT22;9191;54.324;10.126;2023-02-28T08:29:13;15.70;99.90
18131;DHT22;9191;54.324;10.126;2023-02-28T08:31:40;16.20;99.90
18131;DHT22;9191;54.324;10.126;2023-02-28T08:34:08;16.70;99.90
18131;DHT22;9191;54.324;10.126;2023-02-28T08:36:36;17.00;99.90
18131;DHT22;9191;54.324;10.126;2023-02-28T08:39:04;17.70;99.90
18131;DHT22;9191;54.324;10.126;2023-02-28T08:41:31;16.80;99.90
18131;DHT22;9191;54.324;10.126;2023-02-28T08:44:00;17.60;99.90
18131;DHT22;9191;54.324;10.126;2023-02-28T08:46:27;18.30;99.90
18131;DHT22;9191;54.324;10.126;2023-02-28T08:48:54;18.20;99.90
18131;DHT22;9191;54.324;10.126;2023-02-28T08:51:24;17.10;99.90
18131;DHT22;9191;54.324;10.126;2023-02-28T08:53:52;17.20;99.90
18131;DHT22;9191;54.324;10.126;2023-02-28T08:56:20;17.90;99.90
18131;DHT22;9191;54.324;10.126;2023-02-28T08:58:49;18.20;99.90
18131;DHT22;9191;54.324;10.126;2023-02-28T09:01:19;18.50;99.90
18131;DHT22;9191;54.324;10.126;2023-02-28T09:03:48;17.90;99.90
18131;DHT22;9191;54.324;10.126;2023-02-28T09:06:16;17.20;99.90
18131;DHT22;9191;54.324;10.126;2023-02-28T09:08:44;17.60;99.90
18131;DHT22;9191;54.324;10.126;2023-02-28T09:11:11;17.50;99.90
18131;DHT22;9191;54.324;10.126;2023-02-28T09:13:40;18.00;99.90
18131;DHT22;9191;54.324;10.126;2023-02-28T09:16:10;18.00;99.90
18131;DHT22;9191;54.324;10.126;2023-02-28T09:18:39;17.60;99.90
18131;DHT22;9191;54.324;10.126;2023-02-28T09:21:08;18.50;99.90
18131;DHT22;9191;54.324;10.126;2023-02-28T09:23:35;18.60;99.90
18131;DHT22;9191;54.324;10.126;2023-02-28T09:26:07;17.80;99.90
18131;DHT22;9191;54.324;10.126;2023-02-28T09:28:34;17.50;99.90
18131;DHT22;9191;54.324;10.126;2023-02-28T09:31:03;18.60;99.90
18131;DHT22;9191;54.324;10.126;2023-02-28T09:33:30;18.80;99.90
18131;DHT22;9191;54.324;10.126;2023-02-28T09:36:02;18.80;99.90
18131;DHT22;9191;54.324;10.126;2023-02-28T09:38:38;17.80;99.90
18131;DHT22;9191;54.324;10.126;2023-02-28T09:41:12;17.20;99.90
18131;DHT22;9191;54.324;10.126;2023-02-28T09:43:44;17.10;99.90
18131;DHT22;9191;54.324;10.126;2023-02-28T09:46:22;16.40;99.90
18131;DHT22;9191;54.324;10.126;2023-02-28T09:48:52;16.00;99.90
18131;DHT22;9191;54.324;10.126;2023-02-28T09:51:32;16.70;99.90
18131;DHT22;9191;54.324;10.126;2023-02-28T09:54:03;16.30;99.90
18131;DHT22;9191;54.324;10.126;2023-02-28T09:56:33;16.40;99.90
18131;DHT22;9191;54.324;10.126;2023-02-28T09:59:09;18.10;99.90
18131;DHT22;9191;54.324;10.126;2023-02-28T10:01:43;17.20;99.90
18131;DHT22;9191;54.324;10.126;2023-02-28T10:04:20;18.00;99.90
18131;DHT22;9191;54.324;10.126;2023-02-28T10:06:55;18.50;99.90
18131;DHT22;9191;54.324;10.126;2023-02-28T10:09:25;16.80;99.90
18131;DHT22;9191;54.324;10.126;2023-02-28T10:11:56;16.50;99.90
18131;DHT22;9191;54.324;10.126;2023-02-28T10:14:26;16.90;99.90
18131;DHT22;9191;54.324;10.126;2023-02-28T10:16:57;16.50;99.90
18131;DHT22;9191;54.324;10.126;2023-02-28T10:19:29;15.50;99.90
18131;DHT22;9191;54.324;10.126;2023-02-28T10:22:01;15.90;99.90
18131;DHT22;9191;54.324;10.126;2023-02-28T10:24:33;16.00;99.90
18131;DHT22;9191;54.324;10.126;2023-02-28T10:27:06;15.40;99.90
18131;DHT22;9191;54.324;10.126;2023-02-28T10:29:41;14.90;99.90
18131;DHT22;9191;54.324;10.126;2023-02-28T10:32:10;14.50;99.90
18131;DHT22;9191;54.324;10.126;2023-02-28T10:34:38;13.30;99.90
18131;DHT22;9191;54.324;10.126;2023-02-28T10:37:06;12.40;99.90
18131;DHT22;9191;54.324;10.126;2023-02-28T10:39:36;11.90;99.90
18131;DHT22;9191;54.324;10.126;2023-02-28T10:42:03;11.30;99.90
18131;DHT22;9191;54.324;10.126;2023-02-28T10:44:33;10.70;99.90
18131;DHT22;9191;54.324;10.126;2023-02-28T10:47:02;10.60;99.90
18131;DHT22;9191;54.324;10.126;2023-02-28T10:49:29;10.40;99.90
18131;DHT22;9191;54.324;10.126;2023-02-28T10:51:59;10.10;99.90
18131;DHT22;9191;54.324;10.126;2023-02-28T10:54:31;10.10;99.90
18131;DHT22;9191;54.324;10.126;2023-02-28T10:57:11;9.90;99.90
18131;DHT22;9191;54.324;10.126;2023-02-28T10:59:42;9.90;99.90
18131;DHT22;9191;54.324;10.126;2023-02-28T11:02:29;9.90;99.90
18131;DHT22;9191;54.324;10.126;2023-02-28T11:04:59;10.00;99.90
18131;DHT22;9191;54.324;10.126;2023-02-28T11:07:28;10.20;99.90
18131;DHT22;9191;54.324;10.126;2023-02-28T11:09:57;9.90;99.90
18131;DHT22;9191;54.324;10.126;2023-02-28T11:12:28;9.90;99.90
18131;DHT22;9191;54.324;10.126;2023-02-28T11:14:59;9.80;99.90
18131;DHT22;9191;54.324;10.126;2023-02-28T11:17:28;9.50;99.90
18131;DHT22;9191;54.324;10.126;2023-02-28T11:19:58;9.40;99.90
18131;DHT22;9191;54.324;10.126;2023-02-28T11:22:35;9.20;99.90
18131;DHT22;9191;54.324;10.126;2023-02-28T11:25:15;9.20;99.90
18131;DHT22;9191;54.324;10.126;2023-02-28T11:27:53;9.20;99.90
18131;DHT22;9191;54.324;10.126;2023-02-28T11:30:30;9.30;99.90
18131;DHT22;9191;54.324;10.126;2023-02-28T11:32:57;9.10;99.90
18131;DHT22;9191;54.324;10.126;2023-02-28T11:35:28;9.20;99.90
18131;DHT22;9191;54.324;10.126;2023-02-28T11:37:57;9.30;99.90
18131;DHT22;9191;54.324;10.126;2023-02-28T11:40:33;9.30;99.90
18131;DHT22;9191;54.324;10.126;2023-02-28T11:43:07;9.30;99.90
18131;DHT22;9191;54.324;10.126;2023-02-28T11:45:44;9.10;99.90
18131;DHT22;9191;54.324;10.126;2023-02-28T11:48:19;9.20;99.90
18131;DHT22;9191;54.324;10.126;2023-02-28T11:50:56;9.30;99.90
18131;DHT22;9191;54.324;10.126;2023-02-28T11:53:47;9.30;99.90
18131;DHT22;9191;54.324;10.126;2023-02-28T11:56:21;9.30;99.90
18131;DHT22;9191;54.324;10.126;2023-02-28T11:58:55;9.30;99.90
18131;DHT22;9191;54.324;10.126;2023-02-28T12:01:37;9.30;99.90
18131;DHT22;9191;54.324;10.126;2023-02-28T12:04:18;9.10;99.90
18131;DHT22;9191;54.324;10.126;2023-02-28T12:06:51;9.10;99.90
18131;DHT22;9191;54.324;10.126;2023-02-28T12:09:29;9.00;99.90
18131;DHT22;9191;54.324;10.126;2023-02-28T12:12:04;9.00;99.90
18131;DHT22;9191;54.324;10.126;2023-02-28T12:14:47;8.90;99.90
18131;DHT22;9191;54.324;10.126;2023-02-28T12:17:25;8.90;99.90
18131;DHT22;9191;54.324;10.126;2023-02-28T12:20:02;8.80;99.90
18131;DHT22;9191;54.324;10.126;2023-02-28T12:22:36;9.10;99.90
18131;DHT22;9191;54.324;10.126;2023-02-28T12:25:24;9.00;99.90
18131;DHT22;9191;54.324;10.126;2023-02-28T12:27:58;9.10;99.90
18131;DHT22;9191;54.324;10.126;2023-02-28T12:30:28;9.40;99.90
18131;DHT22;9191;54.324;10.126;2023-02-28T12:33:03;9.40;99.90
18131;DHT22;9191;54.324;10.126;2023-02-28T12:35:33;9.10;99.90
18131;DHT22;9191;54.324;10.126;2023-02-28T12:38:05;8.90;99.90
18131;DHT22;9191;54.324;10.126;2023-02-28T12:40:42;8.90;99.90
18131;DHT22;9191;54.324;10.126;2023-02-28T12:43:11;8.80;99.90
18131;DHT22;9191;54.324;10.126;2023-02-28T12:45:43;8.80;99.90
18131;DHT22;9191;54.324;10.126;2023-02-28T12:48:11;8.80;99.90
18131;DHT22;9191;54.324;10.126;2023-02-28T12:50:41;8.70;99.90
18131;DHT22;9191;54.324;10.126;2023-02-28T12:53:12;8.70;99.90
18131;DHT22;9191;54.324;10.126;2023-02-28T12:55:45;8.90;99.90
18131;DHT22;9191;54.324;10.126;2023-02-28T12:58:19;9.00;99.90
18131;DHT22;9191;54.324;10.126;2023-02-28T13:01:01;9.00;99.90
18131;DHT22;9191;54.324;10.126;2023-02-28T13:03:49;8.90;99.90
18131;DHT22;9191;54.324;10.126;2023-02-28T13:06:33;9.10;99.90
18131;DHT22;9191;54.324;10.126;2023-02-28T13:09:04;8.90;99.90
18131;DHT22;9191;54.324;10.126;2023-02-28T13:11:39;8.90;99.90
18131;DHT22;9191;54.324;10.126;2023-02-28T13:14:20;8.80;99.90
18131;DHT22;9191;54.324;10.126;2023-02-28T13:17:01;8.70;99.90
18131;DHT22;9191;54.324;10.126;2023-02-28T13:19:29;8.70;99.90
18131;DHT22;9191;54.324;10.126;2023-02-28T13:21:57;8.70;99.90
18131;DHT22;9191;54.324;10.126;2023-02-28T13:24:43;8.80;99.90
18131;DHT22;9191;54.324;10.126;2023-02-28T13:30:00;8.90;99.90
18131;DHT22;9191;54.324;10.126;2023-02-28T13:32:36;8.90;99.90
18131;DHT22;9191;54.324;10.126;2023-02-28T13:38:24;9.10;99.90
18131;DHT22;9191;54.324;10.126;2023-02-28T13:40:53;9.10;99.90
18131;DHT22;9191;54.324;10.126;2023-02-28T13:44:01;9.00;99.90
18131;DHT22;9191;54.324;10.126;2023-02-28T13:46:30;9.00;99.90
18131;DHT22;9191;54.324;10.126;2023-02-28T13:49:18;9.10;99.90
18131;DHT22;9191;54.324;10.126;2023-02-28T13:51:48;9.00;99.90
18131;DHT22;9191;54.324;10.126;2023-02-28T13:54:24;9.00;99.90
18131;DHT22;9191;54.324;10.126;2023-02-28T13:57:04;8.90;99.90
18131;DHT22;9191;54.324;10.126;2023-02-28T13:59:35;9.00;99.90
18131;DHT22;9191;54.324;10.126;2023-02-28T14:02:25;9.00;99.90
18131;DHT22;9191;54.324;10.126;2023-02-28T14:05:00;9.00;99.90
18131;DHT22;9191;54.324;10.126;2023-02-28T14:07:30;8.80;99.90
18131;DHT22;9191;54.324;10.126;2023-02-28T14:10:00;8.80;99.90
18131;DHT22;9191;54.324;10.126;2023-02-28T14:15:38;8.70;99.90
18131;DHT22;9191;54.324;10.126;2023-02-28T14:18:11;8.80;99.90
18131;DHT22;9191;54.324;10.126;2023-02-28T14:20:40;8.80;99.90
18131;DHT22;9191;54.324;10.126;2023-02-28T14:23:10;8.80;99.90
18131;DHT22;9191;54.324;10.126;2023-02-28T14:25:44;8.70;99.90
18131;DHT22;9191;54.324;10.126;2023-02-28T14:28:16;8.70;99.90
18131;DHT22;9191;54.324;10.126;2023-02-28T14:30:52;8.70;99.90
18131;DHT22;9191;54.324;10.126;2023-02-28T14:33:27;8.80;99.90
18131;DHT22;9191;54.324;10.126;2023-02-28T14:36:08;8.80;99.90
18131;DHT22;9191;54.324;10.126;2023-02-28T14:38:40;8.80;99.90
18131;DHT22;9191;54.324;10.126;2023-02-28T14:41:12;8.70;99.90
18131;DHT22;9191;54.324;10.126;2023-02-28T14:43:47;8.80;99.90
18131;DHT22;9191;54.324;10.126;2023-02-28T14:46:14;8.80;99.90
18131;DHT22;9191;54.324;10.126;2023-02-28T14:48:45;8.60;99.90
18131;DHT22;9191;54.324;10.126;2023-02-28T14:51:12;8.60;99.90
18131;DHT22;9191;54.324;10.126;2023-02-28T14:53:44;8.70;99.90
18131;DHT22;9191;54.324;10.126;2023-02-28T14:56:20;8.70;99.90
18131;DHT22;9191;54.324;10.126;2023-02-28T14:58:51;8.60;99.90
18131;DHT22;9191;54.324;10.126;2023-02-28T15:01:19;8.60;99.90
18131;DHT22;9191;54.324;10.126;2023-02-28T15:03:48;8.60;99.90
18131;DHT22;9191;54.324;10.126;2023-02-28T15:06:23;8.60;99.90
18131;DHT22;9191;54.324;10.126;2023-02-28T15:11:32;8.50;99.90
18131;DHT22;9191;54.324;10.126;2023-02-28T15:14:00;8.60;99.90
18131;DHT22;9191;54.324;10.126;2023-02-28T15:16:28;8.50;99.90
18131;DHT22;9191;54.324;10.126;2023-02-28T15:18:59;8.70;99.90
18131;DHT22;9191;54.324;10.126;2023-02-28T15:21:28;8.60;99.90
18131;DHT22;9191;54.324;10.126;2023-02-28T15:23:55;8.60;99.90
18131;DHT22;9191;54.324;10.126;2023-02-28T15:26:24;8.50;99.90
18131;DHT22;9191;54.324;10.126;2023-02-28T15:28:54;8.60;99.90
18131;DHT22;9191;54.324;10.126;2023-02-28T15:31:26;8.50;99.90
18131;DHT22;9191;54.324;10.126;2023-02-28T15:33:54;8.50;99.90
18131;DHT22;9191;54.324;10.126;2023-02-28T15:36:23;8.40;99.90
18131;DHT22;9191;54.324;10.126;2023-02-28T15:38:53;8.40;99.90
18131;DHT22;9191;54.324;10.126;2023-02-28T15:41:26;8.50;99.90
18131;DHT22;9191;54.324;10.126;2023-02-28T15:44:17;8.40;99.90
18131;DHT22;9191;54.324;10.126;2023-02-28T15:46:45;8.40;99.90
18131;DHT22;9191;54.324;10.126;2023-02-28T15:49:20;8.40;99.90
18131;DHT22;9191;54.324;10.126;2023-02-28T15:51:49;8.40;99.90
18131;DHT22;9191;54.324;10.126;2023-02-28T15:54:20;8.40;99.90
18131;DHT22;9191;54.324;10.126;2023-02-28T15:56:50;8.40;99.90
18131;DHT22;9191;54.324;10.126;2023-02-28T15:59:18;8.40;99.90
18131;DHT22;9191;54.324;10.126;2023-02-28T16:01:45;8.30;99.90
18131;DHT22;9191;54.324;10.126;2023-02-28T16:04:13;8.40;99.90
18131;DHT22;9191;54.324;10.126;2023-02-28T16:06:41;8.40;99.90
18131;DHT22;9191;54.324;10.126;2023-02-28T16:09:11;8.30;99.90
18131;DHT22;9191;54.324;10.126;2023-02-28T16:11:42;8.20;99.90
18131;DHT22;9191;54.324;10.126;2023-02-28T16:14:13;8.20;99.90
18131;DHT22;9191;54.324;10.126;2023-02-28T16:16:44;8.20;99.90
18131;DHT22;9191;54.324;10.126;2023-02-28T16:19:11;8.10;99.90
18131;DHT22;9191;54.324;10.126;2023-02-28T16:21:38;8.10;99.90